createdAt,value
2018-07-20T00:01:34.484Z,5.60
2018-07-20T00:04:02.808Z,5.60
2018-07-20T00:06:31.169Z,5.08
2018-07-20T00:08:59.501Z,6.40
2018-07-20T00:11:27.867Z,5.85
2018-07-20T00:13:56.187Z,5.55
2018-07-20T00:16:24.540Z,5.70
2018-07-20T00:18:52.880Z,4.92
2018-07-20T00:21:21.257Z,5.45
2018-07-20T00:23:49.617Z,5.65
2018-07-20T00:26:17.984Z,5.75
2018-07-20T00:28:46.317Z,5.33
2018-07-20T00:31:14.695Z,5.10
2018-07-20T00:33:43.057Z,4.80
2018-07-20T00:36:11.427Z,5.03
2018-07-20T00:38:39.775Z,5.72
2018-07-20T00:41:08.291Z,5.75
2018-07-20T00:43:36.608Z,5.20
2018-07-20T00:46:04.980Z,6.65
2018-07-20T00:48:33.292Z,5.65
2018-07-20T00:51:01.704Z,5.90
2018-07-20T00:53:30.023Z,6.03
2018-07-20T00:55:58.377Z,5.65
2018-07-20T00:58:26.708Z,5.72
2018-07-20T01:00:57.114Z,6.05
2018-07-20T01:03:25.464Z,6.08
2018-07-20T01:05:53.836Z,6.10
2018-07-20T01:08:22.186Z,6.50
2018-07-20T01:10:50.556Z,5.87
2018-07-20T01:13:18.882Z,6.33
2018-07-20T01:15:47.250Z,5.62
2018-07-20T01:18:15.584Z,6.80
2018-07-20T01:20:43.993Z,6.15
2018-07-20T01:23:12.048Z,6.25
2018-07-20T01:25:40.422Z,6.10
2018-07-20T01:28:08.795Z,5.90
2018-07-20T01:30:37.144Z,6.72
2018-07-20T01:33:05.535Z,6.60
2018-07-20T01:35:33.863Z,6.83
2018-07-20T01:38:01.956Z,5.70
2018-07-20T01:40:30.301Z,6.33
2018-07-20T01:42:58.653Z,6.25
2018-07-20T01:45:26.972Z,6.72
2018-07-20T01:47:55.336Z,7.33
2018-07-20T01:50:23.668Z,7.12
2018-07-20T01:52:52.031Z,6.60
2018-07-20T01:55:20.343Z,6.25
2018-07-20T01:57:48.693Z,7.10
2018-07-20T02:00:17.005Z,6.55
2018-07-20T02:02:45.351Z,5.83
2018-07-20T02:05:13.688Z,7.58
2018-07-20T02:07:42.063Z,6.65
2018-07-20T02:10:10.390Z,6.50
2018-07-20T02:12:38.736Z,7.12
2018-07-20T02:15:07.299Z,5.85
2018-07-20T02:17:35.660Z,6.35
2018-07-20T02:20:04.204Z,6.50
2018-07-20T02:22:32.643Z,6.55
2018-07-20T02:25:00.977Z,6.75
2018-07-20T02:27:29.339Z,6.72
2018-07-20T02:29:57.419Z,8.08
2018-07-20T02:32:25.800Z,7.22
2018-07-20T02:34:54.128Z,8.03
2018-07-20T02:37:22.522Z,7.20
2018-07-20T02:39:50.848Z,6.42
2018-07-20T02:42:19.212Z,7.15
2018-07-20T02:44:47.552Z,6.42
2018-07-20T02:47:15.904Z,6.85
2018-07-20T02:49:44.217Z,7.03
2018-07-20T02:52:12.580Z,9.90
2018-07-20T02:54:40.905Z,7.00
2018-07-20T02:57:09.269Z,7.00
2018-07-20T02:59:37.632Z,7.55
2018-07-20T03:02:12.548Z,7.78
2018-07-20T03:04:40.915Z,7.08
2018-07-20T03:07:09.246Z,7.50
2018-07-20T03:09:37.632Z,7.97
2018-07-20T03:12:05.695Z,8.18
2018-07-20T03:14:34.045Z,7.53
2018-07-20T03:17:02.377Z,8.15
2018-07-20T03:19:30.748Z,7.87
2018-07-20T03:21:59.069Z,7.40
2018-07-20T03:24:27.441Z,7.55
2018-07-20T03:26:55.760Z,8.48
2018-07-20T03:29:24.195Z,7.95
2018-07-20T03:31:52.581Z,6.83
2018-07-20T03:34:20.939Z,6.87
2018-07-20T03:36:49.253Z,7.30
2018-07-20T03:39:17.604Z,7.45
2018-07-20T03:41:45.939Z,7.83
2018-07-20T03:44:14.382Z,7.33
2018-07-20T03:46:42.729Z,7.25
2018-07-20T03:49:11.073Z,6.83
2018-07-20T03:51:39.392Z,8.03
2018-07-20T03:54:07.772Z,7.60
2018-07-20T03:56:36.099Z,7.10
2018-07-20T03:59:04.459Z,6.70
2018-07-20T04:01:32.832Z,7.53
2018-07-20T04:04:01.205Z,6.67
2018-07-20T04:06:29.524Z,6.95
2018-07-20T04:08:57.879Z,7.95
2018-07-20T04:11:26.208Z,7.55
2018-07-20T04:13:54.287Z,6.17
2018-07-20T04:16:22.608Z,6.75
2018-07-20T04:18:50.962Z,6.55
2018-07-20T04:21:19.314Z,7.15
2018-07-20T04:23:47.403Z,7.05
2018-07-20T04:26:15.791Z,6.25
2018-07-20T04:28:44.159Z,7.10
2018-07-20T04:31:12.503Z,6.47
2018-07-20T04:33:40.812Z,7.25
2018-07-20T04:36:08.882Z,7.25
2018-07-20T04:38:37.208Z,7.67
2018-07-20T04:41:05.579Z,9.85
2018-07-20T04:43:33.892Z,7.85
2018-07-20T04:46:02.712Z,7.55
2018-07-20T04:48:30.750Z,8.00
2018-07-20T04:50:59.160Z,8.40
2018-07-20T04:53:27.485Z,8.10
2018-07-20T04:55:55.850Z,9.10
2018-07-20T04:58:24.177Z,6.97
2018-07-20T05:00:52.557Z,8.35
2018-07-20T05:03:20.911Z,8.35
2018-07-20T05:05:49.323Z,7.95
2018-07-20T05:08:17.608Z,8.70
2018-07-20T05:10:45.972Z,8.45
2018-07-20T05:13:14.299Z,7.35
2018-07-20T05:15:42.674Z,7.37
2018-07-20T05:18:11.008Z,7.65
2018-07-20T05:20:39.389Z,6.15
2018-07-20T05:23:07.715Z,7.30
2018-07-20T05:25:36.121Z,7.55
2018-07-20T05:28:04.451Z,7.85
2018-07-20T05:30:32.531Z,7.60
2018-07-20T05:33:00.850Z,7.55
2018-07-20T05:35:29.204Z,7.75
2018-07-20T05:37:57.536Z,7.00
2018-07-20T05:40:25.908Z,6.72
2018-07-20T05:42:54.568Z,7.75
2018-07-20T05:45:22.929Z,7.22
2018-07-20T05:47:51.263Z,7.37
2018-07-20T05:50:19.624Z,6.78
2018-07-20T05:52:48.951Z,7.50
2018-07-20T05:55:18.405Z,7.78
2018-07-20T05:57:46.785Z,7.37
2018-07-20T06:00:15.193Z,6.90
2018-07-20T06:02:43.546Z,8.03
2018-07-20T06:05:15.896Z,8.08
2018-07-20T06:07:44.280Z,7.90
2018-07-20T06:10:12.689Z,8.93
2018-07-20T06:12:41.020Z,9.03
2018-07-20T06:15:09.131Z,10.35
2018-07-20T06:17:37.481Z,8.50
2018-07-20T06:20:07.308Z,10.20
2018-07-20T06:22:35.707Z,9.75
2018-07-20T06:25:04.335Z,7.90
2018-07-20T06:27:32.684Z,7.30
2018-07-20T06:30:01.292Z,9.18
2018-07-20T06:32:29.673Z,10.05
2018-07-20T06:34:58.001Z,9.20
2018-07-20T06:37:27.249Z,8.95
2018-07-20T06:39:55.579Z,8.83
2018-07-20T06:42:24.052Z,7.87
2018-07-20T06:44:52.401Z,8.10
2018-07-20T06:47:20.776Z,8.38
2018-07-20T06:49:49.188Z,7.47
2018-07-20T06:52:17.308Z,8.08
2018-07-20T06:54:45.635Z,7.90
2018-07-20T06:57:14.120Z,8.08
2018-07-20T06:59:42.444Z,7.00
2018-07-20T07:02:11.277Z,8.45
2018-07-20T07:04:39.644Z,8.10
2018-07-20T07:07:08.356Z,8.20
2018-07-20T07:09:36.717Z,7.43
2018-07-20T07:12:05.117Z,7.30
2018-07-20T07:14:33.463Z,8.20
2018-07-20T07:17:01.818Z,7.60
2018-07-20T07:19:30.263Z,8.77
2018-07-20T07:21:58.617Z,9.90
2018-07-20T07:24:26.972Z,8.70
2018-07-20T07:26:55.344Z,5.80
2018-07-20T07:29:23.661Z,6.30
2018-07-20T07:31:52.032Z,10.30
2018-07-20T07:34:20.096Z,7.97
2018-07-20T07:36:48.451Z,7.13
2018-07-20T07:39:16.777Z,5.50
2018-07-20T07:41:45.160Z,5.20
2018-07-20T07:44:13.488Z,7.03
2018-07-20T07:46:41.856Z,5.40
2018-07-20T07:49:10.184Z,5.87
2018-07-20T07:51:38.564Z,5.43
2018-07-20T07:54:06.921Z,5.07
2018-07-20T07:56:35.292Z,5.97
2018-07-20T07:59:03.620Z,5.40
2018-07-20T08:01:31.999Z,6.30
2018-07-20T08:04:00.320Z,6.90
2018-07-20T08:06:28.782Z,6.43
2018-07-20T08:08:57.091Z,5.57
2018-07-20T08:11:25.464Z,5.20
2018-07-20T08:13:53.807Z,6.17
2018-07-20T08:16:22.187Z,6.20
2018-07-20T08:18:50.524Z,5.47
2018-07-20T08:21:18.908Z,6.00
2018-07-20T08:23:47.260Z,5.43
2018-07-20T08:26:15.632Z,6.43
2018-07-20T08:28:44.204Z,6.23
2018-07-20T08:31:12.811Z,6.00
2018-07-20T08:33:41.315Z,6.63
2018-07-20T08:36:10.405Z,6.07
2018-07-20T08:41:32.092Z,5.50
2018-07-20T08:44:01.960Z,6.27
2018-07-20T08:46:30.370Z,6.67
2018-07-20T08:48:58.736Z,5.83
2018-07-20T08:51:27.419Z,6.23
2018-07-20T08:53:55.844Z,5.50
2018-07-20T08:56:24.164Z,6.37
2018-07-20T08:58:52.557Z,5.90
2018-07-20T09:01:20.887Z,6.57
2018-07-20T09:03:49.250Z,5.70
2018-07-20T09:06:17.586Z,5.30
2018-07-20T09:08:45.948Z,5.17
2018-07-20T09:11:14.295Z,6.70
2018-07-20T09:13:42.741Z,6.30
2018-07-20T09:16:10.999Z,5.53
2018-07-20T09:18:39.363Z,6.47
2018-07-20T09:21:07.701Z,6.10
2018-07-20T09:23:35.789Z,5.77
2018-07-20T09:26:04.130Z,5.13
2018-07-20T09:28:32.487Z,5.70
2018-07-20T09:31:00.823Z,6.43
2018-07-20T09:33:29.179Z,5.70
2018-07-20T09:35:57.536Z,5.60
2018-07-20T09:38:25.892Z,4.83
2018-07-20T09:40:54.213Z,5.40
2018-07-20T09:43:22.668Z,4.77
2018-07-20T09:45:51.176Z,5.40
2018-07-20T09:48:19.536Z,5.60
2018-07-20T09:50:47.871Z,5.70
2018-07-20T09:53:16.248Z,6.00
2018-07-20T09:55:44.582Z,5.50
2018-07-20T09:58:13.698Z,6.03
2018-07-20T10:00:48.108Z,5.37
2018-07-20T10:03:16.516Z,5.57
2018-07-20T10:05:45.167Z,5.50
2018-07-20T10:08:13.565Z,5.63
2018-07-20T10:10:41.932Z,5.43
2018-07-20T10:13:10.337Z,5.23
2018-07-20T10:15:38.652Z,5.17
2018-07-20T10:18:07.029Z,6.63
2018-07-20T10:20:35.349Z,5.40
2018-07-20T10:23:03.729Z,5.37
2018-07-20T10:25:32.654Z,5.93
2018-07-20T10:28:01.107Z,5.57
2018-07-20T10:30:29.503Z,5.90
2018-07-20T10:32:57.587Z,6.10
2018-07-20T10:35:25.899Z,6.07
2018-07-20T10:37:54.325Z,6.30
2018-07-20T10:40:25.968Z,5.20
2018-07-20T10:42:55.001Z,5.53
2018-07-20T10:45:23.355Z,5.00
2018-07-20T10:47:51.693Z,5.23
2018-07-20T10:50:20.041Z,5.60
2018-07-20T10:52:48.356Z,5.23
2018-07-20T10:55:16.992Z,5.67
2018-07-20T10:57:45.352Z,5.07
2018-07-20T11:00:13.722Z,5.90
2018-07-20T11:02:42.049Z,5.10
2018-07-20T11:05:10.417Z,4.80
2018-07-20T11:07:38.724Z,5.27
2018-07-20T11:10:07.206Z,4.50
2018-07-20T11:12:35.736Z,5.67
2018-07-20T11:15:04.892Z,6.40
2018-07-20T11:17:33.248Z,6.27
2018-07-20T11:20:01.643Z,5.27
2018-07-20T11:22:29.967Z,6.60
2018-07-20T11:24:58.320Z,5.70
2018-07-20T11:27:26.657Z,6.60
2018-07-20T11:29:55.009Z,6.50
2018-07-20T11:32:23.325Z,6.07
2018-07-20T11:34:58.311Z,5.90
2018-07-20T11:37:26.641Z,6.60
2018-07-20T11:39:55.007Z,6.10
2018-07-20T11:44:58.009Z,5.80
2018-07-20T11:47:26.319Z,6.70
2018-07-20T11:49:54.671Z,7.10
2018-07-20T11:52:23.045Z,6.90
2018-07-20T11:54:51.396Z,6.03
2018-07-20T11:57:19.732Z,7.07
2018-07-20T11:59:48.092Z,5.50
2018-07-20T12:02:16.480Z,6.90
2018-07-20T12:04:44.859Z,7.03
2018-07-20T12:07:13.204Z,6.27
2018-07-20T12:09:41.299Z,5.70
2018-07-20T12:12:09.618Z,7.07
2018-07-20T12:14:37.975Z,5.93
2018-07-20T12:17:06.320Z,7.13
2018-07-20T12:19:34.412Z,6.43
2018-07-20T12:22:02.743Z,7.07
2018-07-20T12:24:31.119Z,7.00
2018-07-20T12:26:59.469Z,6.10
2018-07-20T12:29:27.891Z,7.97
2018-07-20T12:31:56.219Z,7.37
2018-07-20T12:34:24.575Z,7.27
2018-07-20T12:36:53.080Z,7.87
2018-07-20T12:39:21.448Z,7.47
2018-07-20T12:41:49.771Z,7.50
2018-07-20T12:44:18.144Z,6.33
2018-07-20T12:46:46.524Z,7.73
2018-07-20T12:49:14.840Z,7.60
2018-07-20T12:51:43.216Z,7.27
2018-07-20T12:54:11.547Z,7.23
2018-07-20T12:56:39.907Z,7.27
2018-07-20T12:59:08.495Z,7.40
2018-07-20T13:01:36.575Z,7.03
2018-07-20T13:04:04.953Z,7.40
2018-07-20T13:06:33.331Z,7.90
2018-07-20T13:09:01.671Z,6.97
2018-07-20T13:11:30.045Z,7.23
2018-07-20T13:13:58.403Z,8.27
2018-07-20T13:16:26.776Z,7.63
2018-07-20T13:18:55.105Z,7.77
2018-07-20T13:21:23.468Z,7.60
2018-07-20T13:23:51.830Z,7.17
2018-07-20T13:26:20.234Z,6.60
2018-07-20T13:28:48.572Z,7.27
2018-07-20T13:31:28.225Z,8.50
2018-07-20T13:33:56.771Z,8.30
2018-07-20T13:36:25.141Z,7.80
2018-07-20T13:39:10.651Z,8.57
2018-07-20T13:41:39.828Z,8.10
2018-07-20T13:44:08.151Z,7.20
2018-07-20T13:46:36.520Z,7.40
2018-07-20T13:49:04.903Z,7.90
2018-07-20T13:51:33.263Z,7.20
2018-07-20T13:54:01.644Z,7.40
2018-07-20T13:56:33.264Z,6.77
2018-07-20T13:59:05.686Z,7.40
2018-07-20T14:01:34.072Z,7.80
2018-07-20T14:04:02.405Z,6.50
2018-07-20T14:06:30.777Z,7.40
2018-07-20T14:08:58.831Z,6.77
2018-07-20T14:11:27.279Z,6.90
2018-07-20T14:13:55.637Z,6.50
2018-07-20T14:16:24.017Z,7.40
2018-07-20T14:18:52.384Z,6.53
2018-07-20T14:21:20.728Z,6.23
2018-07-20T14:23:49.059Z,6.90
2018-07-20T14:26:17.440Z,7.23
2018-07-20T14:28:45.779Z,6.70
2018-07-20T14:31:13.889Z,7.37
2018-07-20T14:33:42.215Z,6.80
2018-07-20T14:36:10.600Z,5.73
2018-07-20T14:38:38.916Z,6.90
2018-07-20T14:41:07.312Z,5.67
2018-07-20T14:43:35.651Z,5.97
2018-07-20T14:46:04.081Z,5.80
2018-07-20T14:48:32.396Z,5.67
2018-07-20T14:51:00.773Z,6.83
2018-07-20T14:53:29.116Z,5.70
2018-07-20T14:55:57.481Z,5.90
2018-07-20T14:58:25.808Z,6.37
2018-07-20T15:00:54.159Z,5.77
2018-07-20T15:03:22.476Z,5.53
2018-07-20T15:05:52.280Z,6.13
2018-07-20T15:08:20.652Z,6.03
2018-07-20T15:10:49.175Z,6.37
2018-07-20T15:13:18.216Z,5.53
2018-07-20T15:15:46.548Z,5.40
2018-07-20T15:18:14.900Z,5.53
2018-07-20T15:20:43.236Z,5.93
2018-07-20T15:23:11.604Z,6.20
2018-07-20T15:25:39.935Z,6.70
2018-07-20T15:28:08.315Z,7.20
2018-07-20T15:30:36.638Z,6.47
2018-07-20T15:33:05.013Z,6.30
2018-07-20T15:35:33.363Z,6.13
2018-07-20T15:38:01.759Z,6.87
2018-07-20T15:40:30.095Z,7.37
2018-07-20T15:42:58.468Z,6.47
2018-07-20T15:45:26.825Z,7.00
2018-07-20T15:47:55.196Z,6.60
2018-07-20T15:50:23.508Z,7.50
2018-07-20T15:53:36.283Z,7.93
2018-07-20T15:55:20.239Z,9.40
2018-07-20T15:57:48.607Z,6.93
2018-07-20T16:00:16.935Z,9.10
2018-07-20T16:02:45.321Z,8.27
2018-07-20T16:05:13.667Z,8.97
2018-07-20T16:07:41.752Z,7.77
2018-07-20T16:10:10.149Z,8.20
2018-07-20T16:12:38.507Z,9.33
2018-07-20T16:15:06.888Z,8.83
2018-07-20T16:17:35.251Z,9.77
2018-07-20T16:20:03.323Z,9.80
2018-07-20T16:22:31.691Z,10.40
2018-07-20T16:25:00.046Z,8.87
2018-07-20T16:27:28.420Z,8.17
2018-07-20T16:29:56.763Z,8.20
2018-07-20T16:32:25.128Z,7.50
2018-07-20T16:34:53.455Z,6.75
2018-07-20T16:37:21.840Z,6.95
2018-07-20T16:39:50.175Z,5.70
2018-07-20T16:42:18.600Z,5.70
2018-07-20T16:44:46.932Z,6.00
2018-07-20T16:47:15.307Z,6.00
2018-07-20T16:49:43.660Z,5.40
2018-07-20T16:52:12.043Z,4.97
2018-07-20T16:54:40.471Z,4.80
2018-07-20T16:57:09.135Z,3.50
2018-07-20T16:59:37.483Z,4.05
2018-07-20T17:02:05.892Z,3.90
2018-07-20T17:04:34.255Z,4.17
2018-07-20T17:07:02.579Z,4.20
2018-07-20T17:09:30.948Z,4.55
2018-07-20T17:11:59.360Z,4.35
2018-07-20T17:14:27.719Z,4.60
2018-07-20T17:16:56.058Z,4.92
2018-07-20T17:19:24.487Z,4.53
2018-07-20T17:21:52.504Z,4.40
2018-07-20T17:24:20.876Z,4.90
2018-07-20T17:26:49.204Z,5.22
2018-07-20T17:29:18.115Z,4.70
2018-07-20T17:31:46.528Z,4.85
2018-07-20T17:34:14.895Z,4.33
2018-07-20T17:36:43.224Z,4.80
2018-07-20T17:39:12.440Z,4.90
2018-07-20T17:41:40.836Z,4.25
2018-07-20T17:44:09.733Z,4.75
2018-07-20T17:46:38.057Z,5.00
2018-07-20T17:49:06.459Z,4.03
2018-07-20T17:51:34.876Z,5.30
2018-07-20T17:54:08.360Z,4.50
2018-07-20T17:56:36.676Z,4.67
2018-07-20T17:59:05.057Z,4.22
2018-07-20T18:01:34.244Z,3.85
2018-07-20T18:04:04.059Z,4.87
2018-07-20T18:06:32.388Z,4.40
2018-07-20T18:09:00.775Z,3.87
2018-07-20T18:11:29.128Z,4.40
2018-07-20T18:13:57.266Z,3.80
2018-07-20T18:16:25.593Z,3.60
2018-07-20T18:18:53.948Z,5.15
2018-07-20T18:21:22.292Z,5.40
2018-07-20T18:23:50.975Z,5.15
2018-07-20T18:26:19.323Z,4.70
2018-07-20T18:28:47.677Z,4.80
2018-07-20T18:31:15.744Z,5.28
2018-07-20T18:33:44.152Z,4.50
2018-07-20T18:36:12.531Z,4.80
2018-07-20T18:38:41.350Z,4.78
2018-07-20T18:41:09.664Z,4.80
2018-07-20T18:43:38.024Z,4.92
2018-07-20T18:46:06.420Z,4.37
2018-07-20T18:48:34.780Z,4.90
2018-07-20T18:51:03.104Z,4.80
2018-07-20T18:53:31.467Z,5.40
2018-07-20T18:55:59.835Z,4.95
2018-07-20T18:58:28.200Z,5.37
2018-07-20T19:00:56.766Z,4.75
2018-07-20T19:03:25.176Z,5.17
2018-07-20T19:05:53.494Z,3.98
2018-07-20T19:08:21.846Z,4.87
2018-07-20T19:10:50.210Z,5.33
2018-07-20T19:13:18.635Z,5.40
2018-07-20T19:15:47.023Z,5.40
2018-07-20T19:18:15.353Z,4.97
2018-07-20T19:20:43.778Z,5.15
2018-07-20T19:23:12.123Z,6.08
2018-07-20T19:25:40.244Z,6.78
2018-07-20T19:28:08.626Z,5.25
2018-07-20T19:30:36.978Z,5.80
2018-07-20T19:33:05.425Z,5.05
2018-07-20T19:35:33.812Z,4.95
2018-07-20T19:38:02.144Z,5.15
2018-07-20T19:40:30.505Z,5.35
2018-07-20T19:42:58.843Z,5.35
2018-07-20T19:45:27.199Z,5.30
2018-07-20T19:47:55.532Z,6.35
2018-07-20T19:50:23.896Z,5.55
2018-07-20T19:52:52.224Z,5.85
2018-07-20T19:55:20.583Z,5.42
2018-07-20T19:57:48.908Z,5.47
2018-07-20T20:00:17.269Z,6.90
2018-07-20T20:02:45.687Z,5.60
2018-07-20T20:05:13.768Z,6.30
2018-07-20T20:07:41.815Z,5.78
2018-07-20T20:10:10.216Z,6.50
2018-07-20T20:12:38.626Z,6.15
2018-07-20T20:15:07.514Z,6.37
2018-07-20T20:17:35.887Z,6.50
2018-07-20T20:20:05.020Z,6.50
2018-07-20T20:22:33.428Z,5.95
2018-07-20T20:25:01.776Z,6.10
2018-07-20T20:27:30.088Z,5.72
2018-07-20T20:29:58.469Z,6.10
2018-07-20T20:32:26.784Z,6.75
2018-07-20T20:34:55.151Z,6.35
2018-07-20T20:37:23.208Z,6.37
2018-07-20T20:39:51.579Z,6.58
2018-07-20T20:42:19.904Z,6.05
2018-07-20T20:44:48.239Z,7.10
2018-07-20T20:47:16.565Z,5.72
2018-07-20T20:49:44.920Z,6.47
2018-07-20T20:52:13.280Z,7.20
2018-07-20T20:54:41.668Z,7.50
2018-07-20T20:57:09.730Z,8.08
2018-07-20T20:59:38.088Z,7.95
2018-07-20T21:02:06.423Z,7.55
2018-07-20T21:04:34.815Z,6.72
2018-07-20T21:07:03.188Z,7.83
2018-07-20T21:09:31.568Z,7.45
2018-07-20T21:12:00.004Z,7.80
2018-07-20T21:14:28.243Z,7.83
2018-07-20T21:16:56.630Z,7.70
2018-07-20T21:19:24.990Z,7.37
2018-07-20T21:21:53.375Z,7.35
2018-07-20T21:24:21.743Z,7.50
2018-07-20T21:26:50.096Z,8.48
2018-07-20T21:29:18.428Z,7.30
2018-07-20T21:31:46.788Z,8.10
2018-07-20T21:34:15.123Z,9.30
2018-07-20T21:36:43.479Z,8.65
2018-07-20T21:39:13.114Z,9.05
2018-07-20T21:41:42.336Z,9.10
2018-07-20T21:44:10.659Z,9.13
2018-07-20T21:46:39.411Z,8.35
2018-07-20T21:49:07.825Z,9.35
2018-07-20T21:51:36.571Z,9.10
2018-07-20T21:54:04.900Z,9.93
2018-07-20T21:56:33.264Z,10.00
2018-07-20T21:59:01.617Z,9.70
2018-07-20T22:01:29.992Z,9.60
2018-07-20T22:03:58.457Z,11.00
2018-07-20T22:06:26.555Z,10.82
2018-07-20T22:08:54.896Z,10.30
2018-07-20T22:11:23.252Z,11.30
2018-07-20T22:13:51.597Z,8.95
2018-07-20T22:16:19.960Z,10.38
2018-07-20T22:18:48.019Z,9.70
2018-07-20T22:21:16.419Z,9.88
2018-07-20T22:23:44.765Z,9.45
2018-07-20T22:26:13.120Z,9.53
2018-07-20T22:28:41.458Z,9.63
2018-07-20T22:31:09.836Z,10.90
2018-07-20T22:33:38.180Z,10.35
2018-07-20T22:36:06.583Z,9.95
2018-07-20T22:38:34.927Z,10.72
2018-07-20T22:41:03.311Z,11.20
2018-07-20T22:43:31.640Z,11.00
2018-07-20T22:45:59.991Z,10.70
2018-07-20T22:48:28.315Z,10.58
2018-07-20T22:50:56.692Z,10.70
2018-07-20T22:53:25.120Z,10.15
2018-07-20T22:55:53.497Z,10.60
2018-07-20T22:58:21.832Z,10.80
2018-07-20T23:00:50.201Z,11.65
2018-07-20T23:03:18.595Z,11.15
2018-07-20T23:05:46.958Z,11.25
2018-07-20T23:08:15.289Z,10.05
2018-07-20T23:10:43.649Z,9.93
2018-07-20T23:13:11.977Z,10.80
2018-07-20T23:15:40.346Z,10.98
2018-07-20T23:18:08.680Z,10.50
2018-07-20T23:20:37.054Z,10.20
2018-07-20T23:23:05.484Z,11.08
2018-07-20T23:25:33.851Z,10.25
2018-07-20T23:28:02.208Z,10.38
2018-07-20T23:30:30.607Z,10.80
2018-07-20T23:32:58.954Z,10.05
2018-07-20T23:35:27.295Z,10.43
2018-07-20T23:37:55.384Z,11.22
2018-07-20T23:40:23.699Z,10.63
2018-07-20T23:42:52.051Z,10.48
2018-07-20T23:45:20.384Z,10.55
2018-07-20T23:47:48.740Z,10.32
2018-07-20T23:50:17.160Z,10.80
2018-07-20T23:52:45.271Z,11.12
2018-07-20T23:55:13.611Z,10.55
2018-07-20T23:57:41.978Z,10.78
